createdAt,value
2022-09-03T00:02:18.466Z,17.20
2022-09-03T00:05:11.255Z,17.20
2022-09-03T00:08:06.032Z,17.10
2022-09-03T00:10:59.115Z,17.00
2022-09-03T00:13:54.485Z,17.00
2022-09-03T00:16:46.005Z,16.90
2022-09-03T00:19:36.465Z,17.00
2022-09-03T00:22:27.150Z,17.00
2022-09-03T00:25:19.276Z,17.00
2022-09-03T00:28:15.162Z,17.00
2022-09-03T00:31:11.489Z,17.00
2022-09-03T00:34:04.448Z,17.00
2022-09-03T00:36:51.529Z,16.90
2022-09-03T00:39:38.514Z,16.80
2022-09-03T00:42:41.689Z,16.80
2022-09-03T00:45:38.309Z,16.70
2022-09-03T00:48:29.999Z,16.80
2022-09-03T00:51:28.568Z,16.70
2022-09-03T00:54:24.673Z,16.70
2022-09-03T00:57:27.070Z,16.80
2022-09-03T01:00:16.037Z,16.70
2022-09-03T01:03:08.772Z,16.80
2022-09-03T01:06:11.221Z,16.70
2022-09-03T01:09:11.188Z,16.70
2022-09-03T01:12:06.664Z,16.60
2022-09-03T01:15:03.477Z,16.70
2022-09-03T01:18:02.590Z,16.50
2022-09-03T01:21:03.673Z,16.50
2022-09-03T01:24:13.833Z,16.50
2022-09-03T01:27:22.357Z,16.40
2022-09-03T01:30:17.521Z,16.40
2022-09-03T01:33:11.034Z,16.30
2022-09-03T01:36:07.366Z,16.30
2022-09-03T01:38:59.142Z,16.40
2022-09-03T01:42:15.790Z,16.40
2022-09-03T01:45:24.477Z,16.30
2022-09-03T01:48:30.450Z,16.30
2022-09-03T01:51:21.433Z,16.20
2022-09-03T01:54:45.774Z,16.20
2022-09-03T01:57:45.086Z,16.20
2022-09-03T02:00:34.778Z,16.20
2022-09-03T02:03:23.850Z,16.10
2022-09-03T02:06:11.391Z,16.10
2022-09-03T02:08:58.419Z,16.10
2022-09-03T02:11:50.606Z,16.10
2022-09-03T02:14:38.263Z,16.00
2022-09-03T02:17:25.962Z,15.90
2022-09-03T02:20:19.524Z,15.80
2022-09-03T02:23:06.534Z,15.80
2022-09-03T02:25:57.727Z,15.80
2022-09-03T02:28:45.173Z,15.70
2022-09-03T02:31:32.215Z,15.70
2022-09-03T02:34:19.803Z,15.70
2022-09-03T02:37:13.232Z,15.70
2022-09-03T02:40:00.318Z,15.70
2022-09-03T02:42:47.736Z,15.60
2022-09-03T02:45:38.783Z,15.60
2022-09-03T02:48:25.906Z,15.60
2022-09-03T02:51:14.423Z,15.60
2022-09-03T02:54:01.636Z,15.60
2022-09-03T02:56:49.008Z,15.50
2022-09-03T02:59:36.209Z,15.40
2022-09-03T03:02:23.212Z,15.40
2022-09-03T03:05:15.458Z,15.30
2022-09-03T03:08:03.248Z,15.20
2022-09-03T03:10:51.805Z,15.20
2022-09-03T03:13:38.740Z,15.10
2022-09-03T03:16:25.672Z,15.00
2022-09-03T03:19:12.722Z,14.90
2022-09-03T03:21:59.972Z,14.80
2022-09-03T03:24:49.669Z,14.80
2022-09-03T03:27:41.033Z,14.80
2022-09-03T03:30:28.033Z,14.70
2022-09-03T03:33:15.040Z,14.70
2022-09-03T03:36:05.516Z,14.60
2022-09-03T03:38:54.393Z,14.60
2022-09-03T03:41:42.004Z,14.60
2022-09-03T03:44:28.996Z,14.50
2022-09-03T03:47:17.029Z,14.50
2022-09-03T03:50:04.917Z,14.50
2022-09-03T03:52:51.865Z,14.50
2022-09-03T03:55:38.900Z,14.50
2022-09-03T03:58:27.381Z,14.50
2022-09-03T04:01:16.345Z,14.50
2022-09-03T04:04:04.837Z,14.50
2022-09-03T04:06:51.805Z,14.60
2022-09-03T04:09:38.721Z,14.60
2022-09-03T04:12:27.177Z,14.60
2022-09-03T04:15:14.850Z,14.60
2022-09-03T04:18:02.005Z,14.50
2022-09-03T04:20:48.945Z,14.50
2022-09-03T04:23:37.553Z,14.40
2022-09-03T04:26:27.514Z,14.40
2022-09-03T04:29:14.462Z,14.40
2022-09-03T04:32:20.634Z,14.40
2022-09-03T04:35:08.198Z,14.40
2022-09-03T04:37:56.010Z,14.40
2022-09-03T04:40:43.186Z,14.50
2022-09-03T04:43:30.130Z,14.50
2022-09-03T04:46:18.444Z,14.50
2022-09-03T04:49:08.546Z,14.50
2022-09-03T04:51:55.450Z,14.50
2022-09-03T04:54:42.586Z,14.50
2022-09-03T04:57:33.625Z,14.50
2022-09-03T05:00:21.003Z,14.50
2022-09-03T05:03:07.935Z,14.40
2022-09-03T05:05:56.315Z,14.40
2022-09-03T05:08:43.754Z,14.50
2022-09-03T05:11:30.741Z,14.50
2022-09-03T05:14:17.741Z,14.50
2022-09-03T05:17:04.717Z,14.50
2022-09-03T05:19:52.026Z,14.50
2022-09-03T05:22:39.571Z,14.50
2022-09-03T05:25:26.672Z,14.60
2022-09-03T05:28:14.132Z,14.60
2022-09-03T05:31:01.849Z,14.60
2022-09-03T05:33:50.592Z,14.70
2022-09-03T05:36:38.191Z,14.80
2022-09-03T05:39:26.016Z,14.80
2022-09-03T05:42:13.553Z,14.80
2022-09-03T05:45:00.637Z,14.80
2022-09-03T05:47:47.559Z,14.90
2022-09-03T05:50:34.509Z,14.90
2022-09-03T05:53:22.305Z,15.00
2022-09-03T05:56:11.833Z,15.00
2022-09-03T05:59:00.922Z,15.10
2022-09-03T06:01:51.404Z,15.10
2022-09-03T06:04:39.243Z,15.20
2022-09-03T06:07:26.482Z,15.30
2022-09-03T06:10:15.282Z,15.40
2022-09-03T06:13:03.106Z,15.50
2022-09-03T06:15:50.048Z,15.60
2022-09-03T06:18:36.961Z,15.70
2022-09-03T06:21:23.892Z,15.80
2022-09-03T06:24:12.069Z,15.90
2022-09-03T06:26:59.131Z,15.90
2022-09-03T06:29:46.891Z,16.00
2022-09-03T06:32:33.829Z,16.10
2022-09-03T06:35:20.841Z,16.10
2022-09-03T06:38:10.832Z,16.30
2022-09-03T06:41:01.193Z,16.30
2022-09-03T06:43:48.710Z,16.50
2022-09-03T06:46:38.023Z,16.50
2022-09-03T06:49:24.944Z,16.60
2022-09-03T06:52:11.874Z,16.70
2022-09-03T06:54:58.802Z,16.80
2022-09-03T06:57:45.761Z,16.90
2022-09-03T07:00:32.727Z,17.00
2022-09-03T07:03:20.790Z,17.10
2022-09-03T07:06:09.515Z,17.30
2022-09-03T07:08:58.283Z,17.40
2022-09-03T07:11:46.375Z,17.50
2022-09-03T07:14:33.343Z,17.70
2022-09-03T07:17:20.260Z,17.80
2022-09-03T07:20:08.513Z,18.10
2022-09-03T07:22:56.510Z,18.30
2022-09-03T07:25:43.484Z,18.50
2022-09-03T07:28:31.643Z,18.70
2022-09-03T07:31:21.759Z,19.00
2022-09-03T07:34:10.818Z,19.10
2022-09-03T07:36:58.451Z,19.40
2022-09-03T07:39:45.980Z,19.60
2022-09-03T07:42:35.316Z,19.80
2022-09-03T07:45:23.208Z,19.90
2022-09-03T07:48:12.232Z,20.00
2022-09-03T07:51:02.234Z,20.10
2022-09-03T07:53:52.993Z,20.30
2022-09-03T07:56:40.475Z,20.40
2022-09-03T07:59:27.571Z,20.50
2022-09-03T08:02:14.532Z,20.60
2022-09-03T08:05:01.460Z,20.70
2022-09-03T08:07:48.784Z,20.90
2022-09-03T08:10:37.476Z,21.00
2022-09-03T08:13:24.724Z,21.20
2022-09-03T08:16:15.948Z,21.20
2022-09-03T08:19:03.385Z,21.30
2022-09-03T08:21:50.366Z,21.50
2022-09-03T08:24:37.644Z,21.60
2022-09-03T08:27:25.341Z,21.80
2022-09-03T08:30:12.385Z,21.90
2022-09-03T08:33:04.055Z,22.10
2022-09-03T08:35:53.625Z,22.20
2022-09-03T08:38:42.446Z,22.40
2022-09-03T08:41:40.083Z,22.60
2022-09-03T08:44:29.845Z,22.70
2022-09-03T08:47:21.737Z,22.80
2022-09-03T08:50:23.757Z,22.90
2022-09-03T08:53:16.005Z,22.90
2022-09-03T08:56:07.411Z,23.00
2022-09-03T08:58:55.303Z,23.10
2022-09-03T09:01:54.895Z,23.30
2022-09-03T09:04:52.718Z,23.50
2022-09-03T09:07:45.538Z,23.60
2022-09-03T09:10:37.834Z,23.80
2022-09-03T09:13:33.918Z,24.00
2022-09-03T09:16:26.701Z,24.20
2022-09-03T09:19:29.050Z,24.50
2022-09-03T09:22:25.754Z,24.60
2022-09-03T09:25:17.546Z,24.60
2022-09-03T09:28:13.410Z,24.90
2022-09-03T09:31:02.724Z,24.90
2022-09-03T09:33:51.644Z,24.80
2022-09-03T09:36:46.363Z,24.90
2022-09-03T09:39:33.465Z,25.20
2022-09-03T09:42:22.614Z,25.20
2022-09-03T09:45:10.604Z,25.30
2022-09-03T09:47:57.551Z,25.30
2022-09-03T09:50:45.024Z,25.50
2022-09-03T09:53:34.203Z,25.60
2022-09-03T09:56:23.410Z,25.80
2022-09-03T09:59:11.935Z,25.80
2022-09-03T10:02:13.795Z,25.90
2022-09-03T10:05:15.448Z,25.80
2022-09-03T10:08:04.575Z,26.00
2022-09-03T10:10:52.220Z,26.00
2022-09-03T10:13:44.860Z,25.90
2022-09-03T10:16:37.188Z,25.90
2022-09-03T10:19:34.679Z,25.80
2022-09-03T10:22:23.500Z,25.70
2022-09-03T10:25:10.964Z,25.50
2022-09-03T10:28:01.478Z,25.70
2022-09-03T10:31:00.430Z,25.70
2022-09-03T10:33:50.820Z,25.80
2022-09-03T10:36:46.009Z,26.00
2022-09-03T10:39:51.607Z,26.00
2022-09-03T10:42:45.269Z,25.90
2022-09-03T10:45:39.240Z,25.90
2022-09-03T10:48:57.990Z,26.00
2022-09-03T10:51:53.821Z,26.20
2022-09-03T10:54:53.361Z,26.30
2022-09-03T10:57:48.017Z,26.30
2022-09-03T11:00:41.069Z,26.10
2022-09-03T11:03:45.068Z,26.10
2022-09-03T11:06:41.885Z,26.20
2022-09-03T11:09:36.117Z,26.30
2022-09-03T11:12:28.869Z,26.10
2022-09-03T11:15:27.558Z,26.20
2022-09-03T11:18:19.800Z,26.00
2022-09-03T11:21:12.382Z,25.90
2022-09-03T11:24:06.765Z,25.70
2022-09-03T11:27:02.186Z,25.30
2022-09-03T11:29:55.989Z,25.10
2022-09-03T11:32:49.640Z,24.80
2022-09-03T11:35:42.811Z,24.80
2022-09-03T11:38:31.273Z,24.70
2022-09-03T11:41:26.272Z,24.60
2022-09-03T11:44:19.605Z,24.60
2022-09-03T11:47:20.574Z,24.60
2022-09-03T11:50:16.739Z,24.70
2022-09-03T11:53:24.466Z,25.00
2022-09-03T11:56:18.670Z,25.10
2022-09-03T11:59:18.681Z,25.20
2022-09-03T12:02:14.159Z,25.30
2022-09-03T12:05:14.873Z,25.30
2022-09-03T12:08:28.139Z,25.40
2022-09-03T12:11:29.638Z,25.40
2022-09-03T12:14:23.242Z,25.20
2022-09-03T12:17:26.335Z,25.20
2022-09-03T12:20:16.386Z,25.20
2022-09-03T12:23:03.342Z,25.20
2022-09-03T12:25:52.443Z,25.10
2022-09-03T12:28:41.516Z,25.10
2022-09-03T12:31:34.244Z,25.20
2022-09-03T12:34:22.512Z,25.20
2022-09-03T12:38:04.396Z,25.40
2022-09-03T12:40:29.427Z,25.20
2022-09-03T12:46:34.211Z,25.20
2022-09-03T12:49:36.730Z,25.10
2022-09-03T12:52:28.084Z,25.00
2022-09-03T12:55:27.669Z,25.00
2022-09-03T12:58:19.772Z,25.00
2022-09-03T13:01:12.325Z,25.00
2022-09-03T13:04:04.524Z,25.10
2022-09-03T13:06:55.996Z,25.10
2022-09-03T13:09:45.901Z,25.20
2022-09-03T13:12:41.141Z,25.10
2022-09-03T13:15:30.420Z,25.00
2022-09-03T13:18:28.985Z,25.00
2022-09-03T13:21:21.685Z,25.00
2022-09-03T13:24:38.206Z,25.00
2022-09-03T13:27:31.615Z,25.00
2022-09-03T13:30:22.302Z,25.00
2022-09-03T13:33:20.032Z,25.00
2022-09-03T13:36:14.416Z,25.00
2022-09-03T13:39:06.462Z,25.10
2022-09-03T13:42:05.214Z,25.10
2022-09-03T13:44:58.321Z,25.00
2022-09-03T13:48:10.570Z,25.00
2022-09-03T13:51:07.061Z,25.00
2022-09-03T13:54:06.050Z,25.00
2022-09-03T13:57:00.548Z,24.90
2022-09-03T13:59:52.238Z,24.80
2022-09-03T14:02:51.686Z,24.90
2022-09-03T14:05:50.278Z,25.00
2022-09-03T14:08:58.929Z,25.00
2022-09-03T14:11:57.111Z,25.00
2022-09-03T14:14:52.999Z,25.10
2022-09-03T14:17:45.676Z,25.10
2022-09-03T14:20:37.679Z,25.00
2022-09-03T14:23:35.687Z,25.00
2022-09-03T14:26:38.582Z,24.90
2022-09-03T14:29:29.304Z,24.90
2022-09-03T14:32:28.745Z,24.90
2022-09-03T14:35:36.224Z,25.00
2022-09-03T14:39:00.148Z,24.90
2022-09-03T14:42:18.030Z,24.90
2022-09-03T14:45:36.812Z,24.80
2022-09-03T14:48:49.404Z,24.70
2022-09-03T14:51:57.377Z,24.70
2022-09-03T14:55:13.516Z,24.90
2022-09-03T14:58:22.748Z,24.80
2022-09-03T15:01:13.380Z,24.80
2022-09-03T15:04:44.914Z,24.80
2022-09-03T15:07:36.338Z,24.70
2022-09-03T15:10:32.266Z,24.70
2022-09-03T15:13:23.563Z,24.70
2022-09-03T15:16:34.227Z,24.70
2022-09-03T15:19:41.759Z,24.70
2022-09-03T15:22:49.938Z,24.80
2022-09-03T15:25:53.912Z,24.90
2022-09-03T15:29:01.306Z,24.80
2022-09-03T15:31:57.422Z,24.70
2022-09-03T15:35:03.871Z,24.70
2022-09-03T15:37:56.988Z,24.70
2022-09-03T15:40:50.854Z,24.70
2022-09-03T15:43:39.923Z,24.70
2022-09-03T15:46:48.894Z,24.60
2022-09-03T15:49:53.435Z,24.60
2022-09-03T15:52:52.491Z,24.60
2022-09-03T15:55:42.024Z,24.60
2022-09-03T15:58:33.739Z,24.60
2022-09-03T16:01:31.528Z,24.60
2022-09-03T16:04:48.268Z,24.50
2022-09-03T16:07:55.523Z,24.50
2022-09-03T16:10:53.920Z,24.50
2022-09-03T16:13:54.441Z,24.50
2022-09-03T16:16:59.911Z,24.50
2022-09-03T16:19:54.856Z,24.40
2022-09-03T16:22:46.631Z,24.40
2022-09-03T16:25:44.405Z,24.30
2022-09-03T16:28:36.828Z,24.30
2022-09-03T16:31:34.146Z,24.30
2022-09-03T16:34:28.750Z,24.30
2022-09-03T16:37:25.001Z,24.30
2022-09-03T16:40:23.171Z,24.20
2022-09-03T16:43:40.190Z,24.20
2022-09-03T16:46:36.047Z,24.20
2022-09-03T16:49:38.203Z,24.10
2022-09-03T16:52:39.443Z,24.00
2022-09-03T16:55:43.580Z,24.00
2022-09-03T16:58:37.156Z,24.00
2022-09-03T17:01:51.480Z,24.00
2022-09-03T17:04:59.300Z,23.90
2022-09-03T17:08:05.268Z,23.90
2022-09-03T17:11:02.565Z,23.90
2022-09-03T17:14:05.693Z,23.80
2022-09-03T17:17:04.633Z,23.80
2022-09-03T17:19:58.364Z,23.60
2022-09-03T17:22:59.882Z,23.50
2022-09-03T17:25:53.810Z,23.30
2022-09-03T17:28:54.557Z,23.20
2022-09-03T17:31:50.590Z,23.20
2022-09-03T17:34:49.910Z,23.10
2022-09-03T17:37:55.813Z,22.90
2022-09-03T17:40:53.054Z,22.80
2022-09-03T17:43:46.615Z,22.70
2022-09-03T17:46:41.735Z,22.50
2022-09-03T17:49:32.462Z,22.40
2022-09-03T17:52:27.093Z,22.30
2022-09-03T17:55:22.488Z,22.20
2022-09-03T17:58:13.953Z,22.10
2022-09-03T18:01:12.308Z,22.00
2022-09-03T18:04:10.504Z,21.90
2022-09-03T18:07:07.748Z,21.80
2022-09-03T18:10:03.976Z,21.70
2022-09-03T18:13:03.720Z,21.60
2022-09-03T18:15:59.134Z,21.50
2022-09-03T18:18:50.066Z,21.40
2022-09-03T18:21:57.165Z,21.30
2022-09-03T18:25:15.877Z,21.20
2022-09-03T18:28:26.181Z,21.10
2022-09-03T18:31:35.142Z,21.00
2022-09-03T18:34:50.915Z,21.00
2022-09-03T18:37:56.505Z,20.90
2022-09-03T18:41:11.168Z,20.80
2022-09-03T18:44:27.165Z,20.80
2022-09-03T18:48:06.054Z,20.70
2022-09-03T18:51:18.481Z,20.70
2022-09-03T18:54:56.968Z,20.60
2022-09-03T18:58:12.007Z,20.60
2022-09-03T19:01:23.406Z,20.80
2022-09-03T19:04:38.435Z,20.90
2022-09-03T19:07:59.048Z,20.90
2022-09-03T19:11:12.554Z,20.80
2022-09-03T19:14:22.286Z,20.70
2022-09-03T19:17:34.658Z,20.60
2022-09-03T19:20:45.019Z,20.40
2022-09-03T19:23:51.699Z,20.40
2022-09-03T19:27:29.930Z,20.50
2022-09-03T19:30:41.121Z,20.50
2022-09-03T19:33:57.426Z,20.60
2022-09-03T19:37:10.463Z,20.70
2022-09-03T19:40:31.686Z,20.80
2022-09-03T19:43:47.424Z,20.80
2022-09-03T19:47:01.103Z,20.80
2022-09-03T19:50:20.864Z,20.80
2022-09-03T19:53:29.868Z,20.80
2022-09-03T19:56:45.167Z,20.70
2022-09-03T19:59:54.547Z,20.60
2022-09-03T20:03:04.065Z,20.70
2022-09-03T20:06:11.525Z,20.50
2022-09-03T20:09:24.928Z,20.40
2022-09-03T20:12:15.875Z,20.30
2022-09-03T20:15:04.108Z,20.20
2022-09-03T20:18:02.502Z,20.10
2022-09-03T20:20:57.485Z,20.00
2022-09-03T20:23:51.235Z,20.00
2022-09-03T20:26:47.225Z,19.90
2022-09-03T20:29:54.143Z,19.80
2022-09-03T20:33:22.930Z,19.70
2022-09-03T20:36:21.797Z,19.70
2022-09-03T20:39:31.677Z,19.60
2022-09-03T20:42:46.348Z,19.50
2022-09-03T20:45:44.164Z,19.50
2022-09-03T20:48:39.102Z,19.50
2022-09-03T20:51:33.714Z,19.50
2022-09-03T20:54:27.688Z,19.50
2022-09-03T20:57:32.791Z,19.40
2022-09-03T21:00:22.399Z,19.40
2022-09-03T21:03:15.745Z,19.50
2022-09-03T21:06:12.884Z,19.50
2022-09-03T21:09:14.749Z,19.40
2022-09-03T21:12:08.910Z,19.40
2022-09-03T21:15:02.947Z,19.30
2022-09-03T21:18:01.388Z,19.30
2022-09-03T21:20:57.923Z,19.20
2022-09-03T21:23:48.283Z,19.10
2022-09-03T21:26:41.076Z,19.10
2022-09-03T21:29:33.896Z,19.00
2022-09-03T21:32:28.192Z,19.00
2022-09-03T21:35:21.245Z,19.00
2022-09-03T21:38:13.552Z,18.90
2022-09-03T21:41:09.952Z,18.90
2022-09-03T21:44:01.067Z,18.80
2022-09-03T21:46:54.262Z,18.80
2022-09-03T21:50:02.167Z,18.80
2022-09-03T21:52:55.155Z,18.80
2022-09-03T21:55:50.445Z,18.90
2022-09-03T21:58:53.160Z,18.90
2022-09-03T22:01:55.956Z,18.90
2022-09-03T22:04:43.692Z,18.80
2022-09-03T22:07:45.808Z,18.80
2022-09-03T22:10:48.369Z,18.70
2022-09-03T22:13:42.217Z,18.70
2022-09-03T22:16:34.817Z,18.60
2022-09-03T22:19:22.513Z,18.60
2022-09-03T22:22:15.896Z,18.60
2022-09-03T22:25:08.590Z,18.60
2022-09-03T22:28:02.552Z,18.60
2022-09-03T22:30:58.268Z,18.60
2022-09-03T22:33:50.431Z,18.60
2022-09-03T22:36:41.157Z,18.50
2022-09-03T22:39:34.110Z,18.40
2022-09-03T22:42:43.925Z,18.40
2022-09-03T22:45:47.518Z,18.30
2022-09-03T22:48:53.569Z,18.20
2022-09-03T22:51:52.205Z,18.30
2022-09-03T22:54:53.582Z,18.30
2022-09-03T22:57:51.709Z,18.20
2022-09-03T23:00:44.830Z,18.20
2022-09-03T23:03:39.614Z,18.20
2022-09-03T23:06:31.645Z,18.20
2022-09-03T23:09:22.365Z,18.10
2022-09-03T23:12:17.930Z,18.10
2022-09-03T23:15:10.501Z,18.00
2022-09-03T23:18:05.841Z,18.00
2022-09-03T23:20:58.657Z,18.00
2022-09-03T23:23:50.020Z,17.90
2022-09-03T23:26:42.735Z,17.90
2022-09-03T23:29:35.457Z,17.80
2022-09-03T23:32:23.146Z,17.80
2022-09-03T23:35:16.945Z,17.80
2022-09-03T23:38:14.062Z,17.80
2022-09-03T23:41:06.169Z,17.70
2022-09-03T23:44:20.222Z,17.70
2022-09-03T23:47:22.613Z,17.60
2022-09-03T23:50:28.514Z,17.60
2022-09-03T23:53:27.026Z,17.60
2022-09-03T23:56:33.835Z,17.50
2022-09-03T23:59:28.828Z,17.50
